sensor_id;sensor_type;location;lat;lon;timestamp;pressure;altitude;pressure_sealevel;temperature;humidity
1472;BME280;963;42.644;23.336;2023-05-02T00:00:29;94502.38;;;12.91;66.13
1472;BME280;963;42.644;23.336;2023-05-02T00:02:55;94487.69;;;12.93;65.87
1472;BME280;963;42.644;23.336;2023-05-02T00:05:20;94506.28;;;13.04;65.67
1472;BME280;963;42.644;23.336;2023-05-02T00:07:46;94490.25;;;12.86;66.01
1472;BME280;963;42.644;23.336;2023-05-02T00:10:12;94505.41;;;12.93;66.05
1472;BME280;963;42.644;23.336;2023-05-02T00:12:37;94516.63;;;12.82;66.46
1472;BME280;963;42.644;23.336;2023-05-02T00:15:03;94501.44;;;12.72;66.87
1472;BME280;963;42.644;23.336;2023-05-02T00:17:29;94523.75;;;12.78;67.11
1472;BME280;963;42.644;23.336;2023-05-02T00:19:54;94489.97;;;12.61;67.38
1472;BME280;963;42.644;23.336;2023-05-02T00:22:20;94490.81;;;12.65;67.55
1472;BME280;963;42.644;23.336;2023-05-02T00:24:45;94517.28;;;12.72;67.40
1472;BME280;963;42.644;23.336;2023-05-02T00:27:11;94505.06;;;12.61;67.93
1472;BME280;963;42.644;23.336;2023-05-02T00:29:36;94510.81;;;12.66;67.71
1472;BME280;963;42.644;23.336;2023-05-02T00:32:02;94513.84;;;12.68;67.77
1472;BME280;963;42.644;23.336;2023-05-02T00:34:30;94521.88;;;12.79;67.34
1472;BME280;963;42.644;23.336;2023-05-02T00:36:56;94517.22;;;12.69;67.76
1472;BME280;963;42.644;23.336;2023-05-02T00:39:22;94512.59;;;12.62;68.03
1472;BME280;963;42.644;23.336;2023-05-02T00:41:47;94521.16;;;12.52;68.57
1472;BME280;963;42.644;23.336;2023-05-02T00:44:13;94528.19;;;12.41;68.98
1472;BME280;963;42.644;23.336;2023-05-02T00:46:38;94520.13;;;12.60;68.68
1472;BME280;963;42.644;23.336;2023-05-02T00:49:04;94502.75;;;12.56;68.59
1472;BME280;963;42.644;23.336;2023-05-02T00:51:30;94517.88;;;12.62;68.45
1472;BME280;963;42.644;23.336;2023-05-02T00:53:56;94506.41;;;12.47;68.89
1472;BME280;963;42.644;23.336;2023-05-02T00:56:22;94518.66;;;12.63;68.37
1472;BME280;963;42.644;23.336;2023-05-02T00:58:48;94494.91;;;12.63;68.26
1472;BME280;963;42.644;23.336;2023-05-02T01:01:32;94520.81;;;12.53;68.52
1472;BME280;963;42.644;23.336;2023-05-02T01:04:58;94516.69;;;12.56;69.00
1472;BME280;963;42.644;23.336;2023-05-02T01:14:55;94514.53;;;12.32;69.83
1472;BME280;963;42.644;23.336;2023-05-02T01:17:24;94529.72;;;12.42;69.92
1472;BME280;963;42.644;23.336;2023-05-02T01:20:12;94523.72;;;12.45;70.10
1472;BME280;963;42.644;23.336;2023-05-02T01:22:40;94503.53;;;12.60;69.59
1472;BME280;963;42.644;23.336;2023-05-02T01:28:09;94498.38;;;12.67;69.49
1472;BME280;963;42.644;23.336;2023-05-02T01:30:41;94483.53;;;12.59;69.67
1472;BME280;963;42.644;23.336;2023-05-02T01:33:10;94516.34;;;12.28;70.98
1472;BME280;963;42.644;23.336;2023-05-02T01:35:36;94503.63;;;12.33;70.97
1472;BME280;963;42.644;23.336;2023-05-02T01:38:05;94540.75;;;12.21;71.37
1472;BME280;963;42.644;23.336;2023-05-02T01:40:32;94510.66;;;12.26;71.41
1472;BME280;963;42.644;23.336;2023-05-02T01:42:59;94514.41;;;12.25;71.35
1472;BME280;963;42.644;23.336;2023-05-02T01:45:28;94533.59;;;12.21;71.38
1472;BME280;963;42.644;23.336;2023-05-02T01:47:55;94533.47;;;12.41;70.75
1472;BME280;963;42.644;23.336;2023-05-02T01:50:23;94502.34;;;12.24;70.99
1472;BME280;963;42.644;23.336;2023-05-02T01:52:51;94510.28;;;12.57;70.11
1472;BME280;963;42.644;23.336;2023-05-02T01:55:17;94506.38;;;12.77;69.55
1472;BME280;963;42.644;23.336;2023-05-02T01:57:45;94509.75;;;12.74;69.62
1472;BME280;963;42.644;23.336;2023-05-02T02:00:12;94500.72;;;12.75;69.55
1472;BME280;963;42.644;23.336;2023-05-02T02:02:41;94516.44;;;12.65;69.72
1472;BME280;963;42.644;23.336;2023-05-02T02:05:08;94496.75;;;12.59;69.94
1472;BME280;963;42.644;23.336;2023-05-02T02:07:35;94496.31;;;12.53;70.08
1472;BME280;963;42.644;23.336;2023-05-02T02:10:00;94510.72;;;12.29;71.11
1472;BME280;963;42.644;23.336;2023-05-02T02:12:44;94521.13;;;12.18;71.75
1472;BME280;963;42.644;23.336;2023-05-02T02:15:18;94495.69;;;12.03;72.26
1472;BME280;963;42.644;23.336;2023-05-02T02:17:48;94505.16;;;12.08;71.94
1472;BME280;963;42.644;23.336;2023-05-02T02:20:17;94493.53;;;12.12;71.81
1472;BME280;963;42.644;23.336;2023-05-02T02:22:44;94521.59;;;11.98;72.45
1472;BME280;963;42.644;23.336;2023-05-02T02:25:12;94497.91;;;12.28;71.78
1472;BME280;963;42.644;23.336;2023-05-02T02:27:39;94492.34;;;12.06;71.49
1472;BME280;963;42.644;23.336;2023-05-02T02:30:06;94477.94;;;12.00;71.65
1472;BME280;963;42.644;23.336;2023-05-02T02:32:32;94510.25;;;12.24;71.28
1472;BME280;963;42.644;23.336;2023-05-02T02:34:58;94493.94;;;12.14;71.32
1472;BME280;963;42.644;23.336;2023-05-02T02:37:51;94522.03;;;12.03;71.73
1472;BME280;963;42.644;23.336;2023-05-02T02:40:39;94519.53;;;11.87;72.54
1472;BME280;963;42.644;23.336;2023-05-02T02:43:19;94515.56;;;11.97;72.11
1472;BME280;963;42.644;23.336;2023-05-02T02:51:31;94505.44;;;11.99;71.99
1472;BME280;963;42.644;23.336;2023-05-02T02:56:54;94532.38;;;12.15;71.63
1472;BME280;963;42.644;23.336;2023-05-02T02:59:27;94522.84;;;12.07;72.36
1472;BME280;963;42.644;23.336;2023-05-02T03:02:07;94529.16;;;11.99;72.22
1472;BME280;963;42.644;23.336;2023-05-02T03:04:36;94523.75;;;12.18;71.58
1472;BME280;963;42.644;23.336;2023-05-02T03:07:02;94526.19;;;12.04;72.32
1472;BME280;963;42.644;23.336;2023-05-02T03:09:39;94535.50;;;11.95;72.42
1472;BME280;963;42.644;23.336;2023-05-02T03:12:04;94547.19;;;11.97;72.24
1472;BME280;963;42.644;23.336;2023-05-02T03:14:30;94547.78;;;11.87;73.15
1472;BME280;963;42.644;23.336;2023-05-02T03:16:56;94538.66;;;11.81;73.37
1472;BME280;963;42.644;23.336;2023-05-02T03:19:21;94552.09;;;11.76;73.47
1472;BME280;963;42.644;23.336;2023-05-02T03:21:47;94549.84;;;11.97;72.76
1472;BME280;963;42.644;23.336;2023-05-02T03:24:13;94552.66;;;11.85;72.76
1472;BME280;963;42.644;23.336;2023-05-02T03:26:39;94557.69;;;11.94;72.63
1472;BME280;963;42.644;23.336;2023-05-02T03:29:04;94560.16;;;11.83;73.13
1472;BME280;963;42.644;23.336;2023-05-02T03:31:30;94559.03;;;11.84;73.02
1472;BME280;963;42.644;23.336;2023-05-02T03:33:55;94550.66;;;11.78;73.05
1472;BME280;963;42.644;23.336;2023-05-02T03:36:21;94556.97;;;11.74;73.57
1472;BME280;963;42.644;23.336;2023-05-02T03:38:46;94559.09;;;11.65;73.68
1472;BME280;963;42.644;23.336;2023-05-02T03:41:12;94555.66;;;11.61;74.45
1472;BME280;963;42.644;23.336;2023-05-02T03:43:37;94568.63;;;11.73;73.40
1472;BME280;963;42.644;23.336;2023-05-02T03:46:04;94552.19;;;11.56;74.25
1472;BME280;963;42.644;23.336;2023-05-02T03:48:32;94574.31;;;11.75;73.90
1472;BME280;963;42.644;23.336;2023-05-02T03:50:57;94564.16;;;11.77;73.73
1472;BME280;963;42.644;23.336;2023-05-02T03:53:23;94544.91;;;11.73;73.33
1472;BME280;963;42.644;23.336;2023-05-02T03:55:48;94557.47;;;11.79;73.71
1472;BME280;963;42.644;23.336;2023-05-02T03:58:13;94559.69;;;11.54;74.31
1472;BME280;963;42.644;23.336;2023-05-02T04:00:39;94569.38;;;11.27;75.74
1472;BME280;963;42.644;23.336;2023-05-02T04:03:05;94567.81;;;11.23;75.77
1472;BME280;963;42.644;23.336;2023-05-02T04:05:31;94575.34;;;11.24;76.30
1472;BME280;963;42.644;23.336;2023-05-02T04:07:56;94563.28;;;11.23;76.03
1472;BME280;963;42.644;23.336;2023-05-02T04:10:22;94580.13;;;11.19;76.22
1472;BME280;963;42.644;23.336;2023-05-02T04:12:47;94564.19;;;11.31;75.91
1472;BME280;963;42.644;23.336;2023-05-02T04:15:13;94545.75;;;11.12;76.01
1472;BME280;963;42.644;23.336;2023-05-02T04:17:38;94550.59;;;11.29;74.99
1472;BME280;963;42.644;23.336;2023-05-02T04:20:05;94552.94;;;11.34;75.18
1472;BME280;963;42.644;23.336;2023-05-02T04:22:31;94558.91;;;11.31;75.38
1472;BME280;963;42.644;23.336;2023-05-02T04:24:57;94562.25;;;11.28;74.76
1472;BME280;963;42.644;23.336;2023-05-02T04:27:22;94546.16;;;11.33;74.42
1472;BME280;963;42.644;23.336;2023-05-02T04:29:49;94556.28;;;11.54;73.73
1472;BME280;963;42.644;23.336;2023-05-02T04:32:15;94573.53;;;11.51;73.60
1472;BME280;963;42.644;23.336;2023-05-02T04:34:41;94550.00;;;11.39;73.61
1472;BME280;963;42.644;23.336;2023-05-02T04:37:06;94546.09;;;11.52;72.90
1472;BME280;963;42.644;23.336;2023-05-02T04:39:32;94568.53;;;11.66;73.15
1472;BME280;963;42.644;23.336;2023-05-02T04:41:58;94556.81;;;11.63;73.07
1472;BME280;963;42.644;23.336;2023-05-02T04:44:23;94572.75;;;11.93;72.19
1472;BME280;963;42.644;23.336;2023-05-02T04:46:49;94569.06;;;11.98;71.73
1472;BME280;963;42.644;23.336;2023-05-02T04:49:14;94556.81;;;12.12;71.17
1472;BME280;963;42.644;23.336;2023-05-02T04:51:39;94571.28;;;11.96;70.90
1472;BME280;963;42.644;23.336;2023-05-02T04:54:05;94568.19;;;11.90;70.79
1472;BME280;963;42.644;23.336;2023-05-02T04:56:30;94568.88;;;11.87;70.97
1472;BME280;963;42.644;23.336;2023-05-02T04:58:56;94550.06;;;11.88;71.17
1472;BME280;963;42.644;23.336;2023-05-02T05:01:21;94569.56;;;11.84;70.73
1472;BME280;963;42.644;23.336;2023-05-02T05:03:48;94571.41;;;11.80;70.32
1472;BME280;963;42.644;23.336;2023-05-02T05:06:14;94554.81;;;11.79;69.99
1472;BME280;963;42.644;23.336;2023-05-02T05:08:40;94564.31;;;11.84;70.16
1472;BME280;963;42.644;23.336;2023-05-02T05:11:05;94558.69;;;11.85;70.50
1472;BME280;963;42.644;23.336;2023-05-02T05:13:31;94564.53;;;11.98;70.03
1472;BME280;963;42.644;23.336;2023-05-02T05:15:56;94566.78;;;11.96;69.50
1472;BME280;963;42.644;23.336;2023-05-02T05:18:22;94576.00;;;12.09;69.44
1472;BME280;963;42.644;23.336;2023-05-02T05:20:48;94563.13;;;12.04;69.42
1472;BME280;963;42.644;23.336;2023-05-02T05:23:13;94564.53;;;11.98;69.60
1472;BME280;963;42.644;23.336;2023-05-02T05:25:38;94566.50;;;12.05;69.27
1472;BME280;963;42.644;23.336;2023-05-02T05:28:04;94574.22;;;12.17;69.02
1472;BME280;963;42.644;23.336;2023-05-02T05:30:29;94566.53;;;12.31;68.61
1472;BME280;963;42.644;23.336;2023-05-02T05:32:56;94591.66;;;12.25;68.53
1472;BME280;963;42.644;23.336;2023-05-02T05:35:23;94588.69;;;12.27;68.15
1472;BME280;963;42.644;23.336;2023-05-02T05:37:49;94570.63;;;12.29;68.26
1472;BME280;963;42.644;23.336;2023-05-02T05:40:14;94597.69;;;12.52;67.65
1472;BME280;963;42.644;23.336;2023-05-02T05:42:41;94584.22;;;12.61;67.14
1472;BME280;963;42.644;23.336;2023-05-02T05:45:07;94606.94;;;12.65;67.04
1472;BME280;963;42.644;23.336;2023-05-02T05:47:33;94593.13;;;12.49;67.42
1472;BME280;963;42.644;23.336;2023-05-02T05:49:58;94618.28;;;12.69;67.04
1472;BME280;963;42.644;23.336;2023-05-02T05:52:24;94585.91;;;12.72;66.08
1472;BME280;963;42.644;23.336;2023-05-02T05:54:53;94589.78;;;12.52;66.36
1472;BME280;963;42.644;23.336;2023-05-02T05:57:19;94579.56;;;12.50;66.33
1472;BME280;963;42.644;23.336;2023-05-02T05:59:45;94600.81;;;12.61;66.33
1472;BME280;963;42.644;23.336;2023-05-02T06:02:11;94606.28;;;12.75;66.51
1472;BME280;963;42.644;23.336;2023-05-02T06:04:36;94606.94;;;12.65;65.53
1472;BME280;963;42.644;23.336;2023-05-02T06:07:02;94625.50;;;13.02;65.07
1472;BME280;963;42.644;23.336;2023-05-02T06:09:27;94604.56;;;13.20;64.45
1472;BME280;963;42.644;23.336;2023-05-02T06:11:53;94600.44;;;13.23;63.98
1472;BME280;963;42.644;23.336;2023-05-02T06:14:18;94595.13;;;13.19;63.66
1472;BME280;963;42.644;23.336;2023-05-02T06:16:43;94587.28;;;13.26;62.91
1472;BME280;963;42.644;23.336;2023-05-02T06:19:09;94602.16;;;13.08;63.39
1472;BME280;963;42.644;23.336;2023-05-02T06:21:37;94609.03;;;13.16;62.79
1472;BME280;963;42.644;23.336;2023-05-02T06:24:03;94589.44;;;13.17;62.83
1472;BME280;963;42.644;23.336;2023-05-02T06:26:28;94589.59;;;13.31;62.22
1472;BME280;963;42.644;23.336;2023-05-02T06:28:54;94609.38;;;13.44;61.84
1472;BME280;963;42.644;23.336;2023-05-02T06:31:20;94615.00;;;13.39;61.88
1472;BME280;963;42.644;23.336;2023-05-02T06:33:45;94581.34;;;13.36;61.72
1472;BME280;963;42.644;23.336;2023-05-02T06:36:11;94593.66;;;13.62;60.88
1472;BME280;963;42.644;23.336;2023-05-02T06:38:36;94587.28;;;13.67;60.83
1472;BME280;963;42.644;23.336;2023-05-02T06:41:01;94580.47;;;13.66;59.90
1472;BME280;963;42.644;23.336;2023-05-02T06:43:27;94577.97;;;13.80;60.22
1472;BME280;963;42.644;23.336;2023-05-02T06:45:53;94580.34;;;13.92;59.17
1472;BME280;963;42.644;23.336;2023-05-02T06:48:20;94584.09;;;13.91;58.69
1472;BME280;963;42.644;23.336;2023-05-02T06:50:46;94587.13;;;13.90;59.03
1472;BME280;963;42.644;23.336;2023-05-02T06:53:12;94584.81;;;13.85;58.23
1472;BME280;963;42.644;23.336;2023-05-02T06:55:37;94583.38;;;13.94;58.92
1472;BME280;963;42.644;23.336;2023-05-02T06:58:02;94585.06;;;14.20;58.92
1472;BME280;963;42.644;23.336;2023-05-02T07:00:28;94582.22;;;14.43;57.85
1472;BME280;963;42.644;23.336;2023-05-02T07:02:53;94586.75;;;14.46;57.38
1472;BME280;963;42.644;23.336;2023-05-02T07:05:19;94578.50;;;14.55;56.73
1472;BME280;963;42.644;23.336;2023-05-02T07:07:44;94576.22;;;14.50;56.48
1472;BME280;963;42.644;23.336;2023-05-02T07:10:10;94575.81;;;14.48;56.30
1472;BME280;963;42.644;23.336;2023-05-02T07:12:36;94570.88;;;14.46;55.58
1472;BME280;963;42.644;23.336;2023-05-02T07:15:04;94584.25;;;14.75;55.65
1472;BME280;963;42.644;23.336;2023-05-02T07:17:30;94576.34;;;14.82;55.05
1472;BME280;963;42.644;23.336;2023-05-02T07:19:56;94584.63;;;14.73;54.48
1472;BME280;963;42.644;23.336;2023-05-02T07:22:21;94601.22;;;14.59;54.64
1472;BME280;963;42.644;23.336;2023-05-02T07:24:47;94566.47;;;14.72;54.40
1472;BME280;963;42.644;23.336;2023-05-02T07:27:12;94593.09;;;15.00;54.11
1472;BME280;963;42.644;23.336;2023-05-02T07:29:38;94587.81;;;15.07;53.89
1472;BME280;963;42.644;23.336;2023-05-02T07:32:04;94571.56;;;15.19;53.45
1472;BME280;963;42.644;23.336;2023-05-02T07:34:30;94581.06;;;15.31;53.54
1472;BME280;963;42.644;23.336;2023-05-02T07:36:57;94569.72;;;15.52;53.25
1472;BME280;963;42.644;23.336;2023-05-02T07:39:23;94573.59;;;15.65;52.07
1472;BME280;963;42.644;23.336;2023-05-02T07:41:52;94583.38;;;15.54;52.24
1472;BME280;963;42.644;23.336;2023-05-02T07:44:18;94590.09;;;15.19;52.86
1472;BME280;963;42.644;23.336;2023-05-02T07:46:43;94601.44;;;15.13;53.19
1472;BME280;963;42.644;23.336;2023-05-02T07:49:09;94586.75;;;15.26;52.36
1472;BME280;963;42.644;23.336;2023-05-02T07:51:34;94571.94;;;15.14;53.16
1472;BME280;963;42.644;23.336;2023-05-02T07:54:00;94579.59;;;15.48;52.92
1472;BME280;963;42.644;23.336;2023-05-02T07:56:26;94566.38;;;15.69;52.94
1472;BME280;963;42.644;23.336;2023-05-02T07:58:51;94573.97;;;15.95;52.03
1472;BME280;963;42.644;23.336;2023-05-02T08:01:17;94576.63;;;16.03;52.50
1472;BME280;963;42.644;23.336;2023-05-02T08:03:43;94587.22;;;16.27;51.41
1472;BME280;963;42.644;23.336;2023-05-02T08:06:09;94590.22;;;16.33;50.88
1472;BME280;963;42.644;23.336;2023-05-02T08:08:35;94584.16;;;16.43;50.27
1472;BME280;963;42.644;23.336;2023-05-02T08:11:00;94581.94;;;15.99;51.29
1472;BME280;963;42.644;23.336;2023-05-02T08:13:26;94583.44;;;16.21;50.96
1472;BME280;963;42.644;23.336;2023-05-02T08:15:51;94581.91;;;16.42;50.79
1472;BME280;963;42.644;23.336;2023-05-02T08:18:25;94592.91;;;16.19;50.96
1472;BME280;963;42.644;23.336;2023-05-02T08:20:52;94572.78;;;16.29;51.19
1472;BME280;963;42.644;23.336;2023-05-02T08:23:17;94575.44;;;16.39;50.52
1472;BME280;963;42.644;23.336;2023-05-02T08:25:43;94574.31;;;16.26;49.96
1472;BME280;963;42.644;23.336;2023-05-02T08:28:08;94578.50;;;16.38;50.72
1472;BME280;963;42.644;23.336;2023-05-02T08:30:34;94587.91;;;16.64;50.53
1472;BME280;963;42.644;23.336;2023-05-02T08:32:59;94586.75;;;16.82;49.79
1472;BME280;963;42.644;23.336;2023-05-02T08:35:24;94577.19;;;16.96;48.85
1472;BME280;963;42.644;23.336;2023-05-02T08:37:50;94567.34;;;16.89;49.04
1472;BME280;963;42.644;23.336;2023-05-02T08:40:16;94581.81;;;16.81;48.98
1472;BME280;963;42.644;23.336;2023-05-02T08:42:44;94578.66;;;17.07;49.21
1472;BME280;963;42.644;23.336;2023-05-02T08:45:13;94572.88;;;17.27;48.79
1472;BME280;963;42.644;23.336;2023-05-02T08:47:40;94573.09;;;17.57;48.25
1472;BME280;963;42.644;23.336;2023-05-02T08:50:09;94561.69;;;17.57;47.87
1472;BME280;963;42.644;23.336;2023-05-02T08:52:36;94576.94;;;17.49;47.39
1472;BME280;963;42.644;23.336;2023-05-02T08:55:03;94567.66;;;17.75;47.45
1472;BME280;963;42.644;23.336;2023-05-02T08:57:30;94579.06;;;17.75;46.66
1472;BME280;963;42.644;23.336;2023-05-02T08:59:55;94568.09;;;17.66;46.82
1472;BME280;963;42.644;23.336;2023-05-02T09:02:40;94560.06;;;17.77;46.68
1472;BME280;963;42.644;23.336;2023-05-02T09:05:11;94567.19;;;17.91;46.29
1472;BME280;963;42.644;23.336;2023-05-02T09:07:46;94554.97;;;17.97;46.00
1472;BME280;963;42.644;23.336;2023-05-02T09:10:13;94545.84;;;17.98;46.38
1472;BME280;963;42.644;23.336;2023-05-02T09:12:39;94560.53;;;18.13;45.29
1472;BME280;963;42.644;23.336;2023-05-02T09:15:14;94565.31;;;18.32;44.86
1472;BME280;963;42.644;23.336;2023-05-02T09:17:45;94557.88;;;18.09;44.50
1472;BME280;963;42.644;23.336;2023-05-02T09:20:13;94555.63;;;18.08;45.12
1472;BME280;963;42.644;23.336;2023-05-02T09:22:39;94555.88;;;18.24;44.92
1472;BME280;963;42.644;23.336;2023-05-02T09:25:11;94546.50;;;18.47;44.27
1472;BME280;963;42.644;23.336;2023-05-02T09:30:21;94556.19;;;18.71;43.85
1472;BME280;963;42.644;23.336;2023-05-02T09:32:47;94540.72;;;18.89;43.30
1472;BME280;963;42.644;23.336;2023-05-02T09:35:16;94538.94;;;18.41;44.39
1472;BME280;963;42.644;23.336;2023-05-02T09:37:55;94533.53;;;18.49;43.41
1472;BME280;963;42.644;23.336;2023-05-02T09:40:21;94535.56;;;18.75;44.19
1472;BME280;963;42.644;23.336;2023-05-02T09:42:47;94548.28;;;18.94;43.18
1472;BME280;963;42.644;23.336;2023-05-02T09:45:20;94532.50;;;18.77;43.19
1472;BME280;963;42.644;23.336;2023-05-02T09:47:46;94543.25;;;18.69;43.23
1472;BME280;963;42.644;23.336;2023-05-02T09:50:31;94524.91;;;19.05;43.26
1472;BME280;963;42.644;23.336;2023-05-02T09:53:04;94514.66;;;19.31;42.78
1472;BME280;963;42.644;23.336;2023-05-02T09:55:30;94520.25;;;19.40;41.80
1472;BME280;963;42.644;23.336;2023-05-02T09:57:56;94520.19;;;18.86;42.20
1472;BME280;963;42.644;23.336;2023-05-02T10:00:22;94532.69;;;19.23;41.82
1472;BME280;963;42.644;23.336;2023-05-02T10:02:49;94526.53;;;19.26;41.44
1472;BME280;963;42.644;23.336;2023-05-02T10:05:16;94522.59;;;19.38;41.04
1472;BME280;963;42.644;23.336;2023-05-02T10:07:44;94508.69;;;19.50;40.92
1472;BME280;963;42.644;23.336;2023-05-02T10:10:13;94509.78;;;19.80;40.81
1472;BME280;963;42.644;23.336;2023-05-02T10:12:41;94506.00;;;19.77;40.73
1472;BME280;963;42.644;23.336;2023-05-02T10:15:08;94506.06;;;19.74;39.58
1472;BME280;963;42.644;23.336;2023-05-02T10:17:47;94502.03;;;19.35;39.89
1472;BME280;963;42.644;23.336;2023-05-02T10:20:15;94510.75;;;19.39;39.38
1472;BME280;963;42.644;23.336;2023-05-02T10:22:44;94502.38;;;19.64;39.19
1472;BME280;963;42.644;23.336;2023-05-02T10:25:12;94502.47;;;19.84;39.95
1472;BME280;963;42.644;23.336;2023-05-02T10:27:38;94491.56;;;19.75;38.18
1472;BME280;963;42.644;23.336;2023-05-02T10:30:04;94488.44;;;19.26;38.72
1472;BME280;963;42.644;23.336;2023-05-02T10:32:32;94501.00;;;19.56;38.36
1472;BME280;963;42.644;23.336;2023-05-02T10:35:04;94492.72;;;19.74;38.32
1472;BME280;963;42.644;23.336;2023-05-02T10:37:33;94503.84;;;19.92;38.25
1472;BME280;963;42.644;23.336;2023-05-02T10:40:00;94512.56;;;19.96;38.15
1472;BME280;963;42.644;23.336;2023-05-02T10:42:27;94496.31;;;19.87;37.82
1472;BME280;963;42.644;23.336;2023-05-02T10:44:53;94493.09;;;20.19;37.85
1472;BME280;963;42.644;23.336;2023-05-02T10:55:16;94492.00;;;20.16;36.58
1472;BME280;963;42.644;23.336;2023-05-02T11:00:29;94484.22;;;20.02;36.88
1472;BME280;963;42.644;23.336;2023-05-02T11:02:55;94488.44;;;20.23;37.02
1472;BME280;963;42.644;23.336;2023-05-02T11:05:22;94477.63;;;19.87;36.75
1472;BME280;963;42.644;23.336;2023-05-02T11:07:48;94486.78;;;19.86;36.95
1472;BME280;963;42.644;23.336;2023-05-02T11:12:43;94475.47;;;19.78;36.99
1472;BME280;963;42.644;23.336;2023-05-02T11:15:10;94483.66;;;19.91;37.31
1472;BME280;963;42.644;23.336;2023-05-02T11:18:04;94471.81;;;19.92;37.06
1472;BME280;963;42.644;23.336;2023-05-02T11:20:32;94471.50;;;20.10;36.68
1472;BME280;963;42.644;23.336;2023-05-02T11:23:18;94465.63;;;20.18;36.89
1472;BME280;963;42.644;23.336;2023-05-02T11:25:54;94468.47;;;20.51;37.27
1472;BME280;963;42.644;23.336;2023-05-02T11:31:01;94464.63;;;20.72;37.26
1472;BME280;963;42.644;23.336;2023-05-02T11:33:29;94468.09;;;20.88;36.73
1472;BME280;963;42.644;23.336;2023-05-02T11:35:55;94475.25;;;21.11;36.34
1472;BME280;963;42.644;23.336;2023-05-02T11:38:25;94467.34;;;20.88;35.93
1472;BME280;963;42.644;23.336;2023-05-02T11:40:56;94455.81;;;20.55;36.10
1472;BME280;963;42.644;23.336;2023-05-02T11:43:22;94454.63;;;20.56;36.45
1472;BME280;963;42.644;23.336;2023-05-02T11:45:51;94462.06;;;20.84;37.08
1472;BME280;963;42.644;23.336;2023-05-02T11:48:17;94442.63;;;21.00;36.74
1472;BME280;963;42.644;23.336;2023-05-02T11:50:53;94428.16;;;20.62;36.29
1472;BME280;963;42.644;23.336;2023-05-02T11:53:26;94455.19;;;20.47;37.00
1472;BME280;963;42.644;23.336;2023-05-02T11:56:01;94443.88;;;20.59;36.94
1472;BME280;963;42.644;23.336;2023-05-02T11:58:28;94452.94;;;20.46;36.77
1472;BME280;963;42.644;23.336;2023-05-02T12:00:56;94431.84;;;20.28;37.35
1472;BME280;963;42.644;23.336;2023-05-02T12:03:30;94434.00;;;20.56;37.43
1472;BME280;963;42.644;23.336;2023-05-02T12:05:57;94427.34;;;20.65;36.78
1472;BME280;963;42.644;23.336;2023-05-02T12:08:32;94427.25;;;20.68;36.64
1472;BME280;963;42.644;23.336;2023-05-02T12:10:58;94424.47;;;20.91;36.47
1472;BME280;963;42.644;23.336;2023-05-02T12:13:24;94418.97;;;20.82;36.23
1472;BME280;963;42.644;23.336;2023-05-02T12:15:52;94408.59;;;20.84;36.86
1472;BME280;963;42.644;23.336;2023-05-02T12:18:20;94413.88;;;20.52;36.29
1472;BME280;963;42.644;23.336;2023-05-02T12:20:48;94414.22;;;20.70;35.95
1472;BME280;963;42.644;23.336;2023-05-02T12:23:14;94399.88;;;20.80;36.25
1472;BME280;963;42.644;23.336;2023-05-02T12:25:40;94411.59;;;20.86;36.35
1472;BME280;963;42.644;23.336;2023-05-02T12:28:06;94413.31;;;20.77;36.65
1472;BME280;963;42.644;23.336;2023-05-02T12:30:33;94410.19;;;20.82;36.32
1472;BME280;963;42.644;23.336;2023-05-02T12:33:01;94404.97;;;21.43;36.15
1472;BME280;963;42.644;23.336;2023-05-02T12:35:27;94383.44;;;21.14;35.52
1472;BME280;963;42.644;23.336;2023-05-02T12:37:53;94389.50;;;21.35;34.99
1472;BME280;963;42.644;23.336;2023-05-02T12:40:20;94376.16;;;21.15;35.61
1472;BME280;963;42.644;23.336;2023-05-02T12:43:01;94373.88;;;21.33;35.04
1472;BME280;963;42.644;23.336;2023-05-02T12:45:31;94381.88;;;21.49;35.37
1472;BME280;963;42.644;23.336;2023-05-02T12:48:16;94365.47;;;21.47;35.01
1472;BME280;963;42.644;23.336;2023-05-02T12:50:41;94381.72;;;21.57;35.36
1472;BME280;963;42.644;23.336;2023-05-02T12:53:07;94362.16;;;21.43;35.13
1472;BME280;963;42.644;23.336;2023-05-02T12:55:33;94377.63;;;21.19;35.16
1472;BME280;963;42.644;23.336;2023-05-02T12:58:08;94363.50;;;21.19;35.34
1472;BME280;963;42.644;23.336;2023-05-02T13:00:39;94361.63;;;21.16;35.58
1472;BME280;963;42.644;23.336;2023-05-02T13:03:05;94365.31;;;21.06;35.23
1472;BME280;963;42.644;23.336;2023-05-02T13:05:32;94379.88;;;21.37;35.35
1472;BME280;963;42.644;23.336;2023-05-02T13:07:57;94352.19;;;21.44;35.16
1472;BME280;963;42.644;23.336;2023-05-02T13:10:24;94370.94;;;21.28;35.18
1472;BME280;963;42.644;23.336;2023-05-02T13:12:51;94360.97;;;20.96;34.80
1472;BME280;963;42.644;23.336;2023-05-02T13:15:16;94382.88;;;20.90;35.45
1472;BME280;963;42.644;23.336;2023-05-02T13:17:43;94380.22;;;20.71;35.73
1472;BME280;963;42.644;23.336;2023-05-02T13:20:09;94376.97;;;20.79;35.61
1472;BME280;963;42.644;23.336;2023-05-02T13:22:35;94372.75;;;21.14;35.25
1472;BME280;963;42.644;23.336;2023-05-02T13:25:02;94382.88;;;21.07;34.83
1472;BME280;963;42.644;23.336;2023-05-02T13:27:27;94380.28;;;21.19;34.59
1472;BME280;963;42.644;23.336;2023-05-02T13:29:53;94383.88;;;20.97;34.32
1472;BME280;963;42.644;23.336;2023-05-02T13:32:18;94382.28;;;20.99;34.88
1472;BME280;963;42.644;23.336;2023-05-02T13:34:44;94371.59;;;20.99;34.46
1472;BME280;963;42.644;23.336;2023-05-02T13:37:10;94386.00;;;20.69;34.54
1472;BME280;963;42.644;23.336;2023-05-02T13:39:35;94369.16;;;20.88;34.38
1472;BME280;963;42.644;23.336;2023-05-02T13:42:01;94388.72;;;20.85;34.56
1472;BME280;963;42.644;23.336;2023-05-02T13:44:30;94372.00;;;20.98;34.36
1472;BME280;963;42.644;23.336;2023-05-02T13:46:56;94364.16;;;20.90;34.45
1472;BME280;963;42.644;23.336;2023-05-02T13:49:22;94374.41;;;21.08;34.09
1472;BME280;963;42.644;23.336;2023-05-02T13:51:47;94380.09;;;21.10;34.29
1472;BME280;963;42.644;23.336;2023-05-02T13:54:13;94349.09;;;21.13;33.88
1472;BME280;963;42.644;23.336;2023-05-02T13:56:39;94379.34;;;21.10;34.12
1472;BME280;963;42.644;23.336;2023-05-02T13:59:05;94388.16;;;20.74;34.62
1472;BME280;963;42.644;23.336;2023-05-02T14:01:31;94377.19;;;20.88;34.56